PWSweather.com
Personal Weather Stations
Station Observations
GEELONGWX1
Bell Post Hill, GeelongAU

Bell Post HillGeelongAU

Lat: -38.101, Lon: 144.326

Elevation: 204

Station Type: Davis Vantage Pro2

http://www.geelongweather.com

High Low Average
Temperature 77.4°F25.2°C 58.3°F14.6°C 66.9°F19.4°C
Dew Point 58.6°F14.8°C 52.5°F11.4°C 55.8°F13.2°C
Winds 8.0 mph 12.9 kmh Calm Calm 3.0 mph SE4.8 kmh SE
Wind Gusts 15.0 mph24.1 kmh -- 6.0 mph9.7 kmh
Humidity 82% 49% 69%
Pressure 29.91 in1012.9 mb 29.74 in1007.1 mb -
Precipitation 0.00 in0.0 mm - -
Hour Temp Dew Point Humidity Winds Wind Gusts Pressure Precip Precip Rate Daily Precip Total
12:00 AM 60.3°F15.7°C 53.4°F11.9°C 78% Calm Calm -- 29.91 in1012.9 mb 0.00 in0.0 mm 0.00 in/hr0.0 mm/hr 0.00 in0.0 mm
12:10 AM 60.2°F15.7°C 53.3°F11.8°C 78% Calm Calm 1.0 mph1.6 kmh 29.90 in1012.5 mb 0.00 in0.0 mm 0.00 in/hr0.0 mm/hr 0.00 in0.0 mm
12:20 AM 60.0°F15.6°C 53.1°F11.7°C 78% Calm Calm -- 29.90 in1012.5 mb 0.00 in0.0 mm 0.00 in/hr0.0 mm/hr 0.00 in0.0 mm
12:30 AM 59.7°F15.4°C 53.5°F11.9°C 80% Calm Calm -- 29.90 in1012.5 mb 0.00 in0.0 mm 0.00 in/hr0.0 mm/hr 0.00 in0.0 mm
12:40 AM 59.4°F15.2°C 53.5°F11.9°C 81% Calm Calm -- 29.90 in1012.5 mb 0.00 in0.0 mm 0.00 in/hr0.0 mm/hr 0.00 in0.0 mm
12:50 AM 59.0°F15.0°C 53.6°F12.0°C 82% Calm Calm 2.0 mph3.2 kmh 29.89 in1012.2 mb 0.00 in0.0 mm 0.00 in/hr0.0 mm/hr 0.00 in0.0 mm
01:00 AM 58.9°F14.9°C 53.4°F11.9°C 82% 0.6 mph SE1.0 kmh SE 3.0 mph4.8 kmh 29.89 in1012.2 mb 0.00 in0.0 mm 0.00 in/hr0.0 mm/hr 0.00 in0.0 mm
01:10 AM 58.9°F14.9°C 53.5°F11.9°C 82% 2.3 mph SE3.7 kmh SE 1.0 mph1.6 kmh 29.89 in1012.2 mb 0.00 in0.0 mm 0.00 in/hr0.0 mm/hr 0.00 in0.0 mm
01:20 AM 59.0°F15.0°C 53.5°F11.9°C 82% 3.5 mph SE5.6 kmh SE 5.0 mph8.0 kmh 29.88 in1011.9 mb 0.00 in0.0 mm 0.00 in/hr0.0 mm/hr 0.00 in0.0 mm
01:30 AM 59.0°F15.0°C 53.5°F11.9°C 82% 3.3 mph SE5.3 kmh SE 7.0 mph11.3 kmh 29.88 in1011.9 mb 0.00 in0.0 mm 0.00 in/hr0.0 mm/hr 0.00 in0.0 mm
01:40 AM 59.0°F15.0°C 53.5°F11.9°C 82% 1.9 mph SE3.1 kmh SE 4.0 mph6.4 kmh 29.87 in1011.5 mb 0.00 in0.0 mm 0.00 in/hr0.0 mm/hr 0.00 in0.0 mm
01:50 AM 59.0°F15.0°C 53.5°F11.9°C 82% 2.2 mph SE3.5 kmh SE 6.0 mph9.7 kmh 29.87 in1011.5 mb 0.00 in0.0 mm 0.00 in/hr0.0 mm/hr 0.00 in0.0 mm
02:00 AM 58.9°F14.9°C 53.1°F11.7°C 81% 3.3 mph SE5.3 kmh SE 7.0 mph11.3 kmh 29.87 in1011.5 mb 0.00 in0.0 mm 0.00 in/hr0.0 mm/hr 0.00 in0.0 mm
02:10 AM 59.0°F15.0°C 53.1°F11.7°C 81% 2.5 mph ESE4.0 kmh ESE 3.0 mph4.8 kmh 29.87 in1011.5 mb 0.00 in0.0 mm 0.00 in/hr0.0 mm/hr 0.00 in0.0 mm
02:20 AM 58.9°F14.9°C 53.1°F11.7°C 81% 0.8 mph SE1.3 kmh SE 7.0 mph11.3 kmh 29.86 in1011.2 mb 0.00 in0.0 mm 0.00 in/hr0.0 mm/hr 0.00 in0.0 mm
02:30 AM 58.9°F14.9°C 53.1°F11.7°C 81% 0.2 mph SE0.3 kmh SE 5.0 mph8.0 kmh 29.86 in1011.2 mb 0.00 in0.0 mm 0.00 in/hr0.0 mm/hr 0.00 in0.0 mm
02:40 AM 58.8°F14.9°C 53.3°F11.8°C 82% Calm Calm -- 29.86 in1011.2 mb 0.00 in0.0 mm 0.00 in/hr0.0 mm/hr 0.00 in0.0 mm
02:50 AM 58.6°F14.8°C 53.1°F11.7°C 82% 0.8 mph SE1.3 kmh SE -- 29.86 in1011.2 mb 0.00 in0.0 mm 0.00 in/hr0.0 mm/hr 0.00 in0.0 mm
03:00 AM 58.3°F14.6°C 52.8°F11.6°C 82% 1.9 mph SSE3.1 kmh SSE 7.0 mph11.3 kmh 29.86 in1011.2 mb 0.00 in0.0 mm 0.00 in/hr0.0 mm/hr 0.00 in0.0 mm
03:10 AM 58.3°F14.6°C 52.5°F11.4°C 81% 2.2 mph SE3.5 kmh SE 6.0 mph9.7 kmh 29.86 in1011.2 mb 0.00 in0.0 mm 0.00 in/hr0.0 mm/hr 0.00 in0.0 mm
03:20 AM 58.3°F14.6°C 52.5°F11.4°C 81% 0.3 mph ESE0.5 kmh ESE -- 29.86 in1011.2 mb 0.00 in0.0 mm 0.00 in/hr0.0 mm/hr 0.00 in0.0 mm
03:30 AM 58.4°F14.7°C 52.6°F11.4°C 81% 0.4 mph SE0.6 kmh SE 4.0 mph6.4 kmh 29.86 in1011.2 mb 0.00 in0.0 mm 0.00 in/hr0.0 mm/hr 0.00 in0.0 mm
03:40 AM 58.4°F14.7°C 52.6°F11.4°C 81% 1.4 mph SE2.3 kmh SE 4.0 mph6.4 kmh 29.86 in1011.2 mb 0.00 in0.0 mm 0.00 in/hr0.0 mm/hr 0.00 in0.0 mm
03:50 AM 58.6°F14.8°C 52.8°F11.6°C 81% 3.9 mph S6.3 kmh S 5.0 mph8.0 kmh 29.86 in1011.2 mb 0.00 in0.0 mm 0.00 in/hr0.0 mm/hr 0.00 in0.0 mm
04:00 AM 58.6°F14.8°C 52.8°F11.6°C 81% 2.8 mph SE4.5 kmh SE 7.0 mph11.3 kmh 29.86 in1011.2 mb 0.00 in0.0 mm 0.00 in/hr0.0 mm/hr 0.00 in0.0 mm
04:10 AM 58.7°F14.8°C 52.9°F11.6°C 81% 1.3 mph ESE2.1 kmh ESE 7.0 mph11.3 kmh 29.86 in1011.2 mb 0.00 in0.0 mm 0.00 in/hr0.0 mm/hr 0.00 in0.0 mm
04:20 AM 58.8°F14.9°C 53.0°F11.7°C 81% 2.6 mph SE4.2 kmh SE 4.0 mph6.4 kmh 29.86 in1011.2 mb 0.00 in0.0 mm 0.00 in/hr0.0 mm/hr 0.00 in0.0 mm
04:30 AM 58.7°F14.8°C 52.9°F11.6°C 81% 1.0 mph SE1.6 kmh SE 7.0 mph11.3 kmh 29.86 in1011.2 mb 0.00 in0.0 mm 0.00 in/hr0.0 mm/hr 0.00 in0.0 mm
04:40 AM 58.8°F14.9°C 53.0°F11.7°C 81% 1.6 mph SE2.6 kmh SE 10.0 mph16.1 kmh 29.86 in1011.2 mb 0.00 in0.0 mm 0.00 in/hr0.0 mm/hr 0.00 in0.0 mm
04:50 AM 58.8°F14.9°C 52.6°F11.4°C 80% 3.1 mph SE5.0 kmh SE 8.0 mph12.9 kmh 29.86 in1011.2 mb 0.00 in0.0 mm 0.00 in/hr0.0 mm/hr 0.00 in0.0 mm
05:00 AM 58.8°F14.9°C 52.6°F11.4°C 80% 1.7 mph SE2.7 kmh SE 9.0 mph14.5 kmh 29.86 in1011.2 mb 0.00 in0.0 mm 0.00 in/hr0.0 mm/hr 0.00 in0.0 mm
05:10 AM 58.8°F14.9°C 52.6°F11.4°C 80% 3.1 mph SE5.0 kmh SE 8.0 mph12.9 kmh 29.86 in1011.2 mb 0.00 in0.0 mm 0.00 in/hr0.0 mm/hr 0.00 in0.0 mm
05:20 AM 58.8°F14.9°C 52.6°F11.4°C 80% 3.8 mph SE6.1 kmh SE 7.0 mph11.3 kmh 29.86 in1011.2 mb 0.00 in0.0 mm 0.00 in/hr0.0 mm/hr 0.00 in0.0 mm
05:30 AM 58.8°F14.9°C 53.0°F11.7°C 81% 3.9 mph SE6.3 kmh SE 9.0 mph14.5 kmh 29.86 in1011.2 mb 0.00 in0.0 mm 0.00 in/hr0.0 mm/hr 0.00 in0.0 mm
05:40 AM 58.7°F14.8°C 52.9°F11.6°C 81% 2.8 mph SE4.5 kmh SE 4.0 mph6.4 kmh 29.87 in1011.5 mb 0.00 in0.0 mm 0.00 in/hr0.0 mm/hr 0.00 in0.0 mm
05:50 AM 58.8°F14.9°C 53.0°F11.7°C 81% 2.1 mph SE3.4 kmh SE 9.0 mph14.5 kmh 29.87 in1011.5 mb 0.00 in0.0 mm 0.00 in/hr0.0 mm/hr 0.00 in0.0 mm
06:00 AM 58.9°F14.9°C 53.1°F11.7°C 81% 0.2 mph SE0.3 kmh SE -- 29.87 in1011.5 mb 0.00 in0.0 mm 0.00 in/hr0.0 mm/hr 0.00 in0.0 mm
06:10 AM 59.1°F15.1°C 53.6°F12.0°C 82% Calm Calm -- 29.88 in1011.9 mb 0.00 in0.0 mm 0.00 in/hr0.0 mm/hr 0.00 in0.0 mm
06:20 AM 59.4°F15.2°C 53.9°F12.2°C 82% 1.4 mph ESE2.3 kmh ESE 2.0 mph3.2 kmh 29.88 in1011.9 mb 0.00 in0.0 mm 0.00 in/hr0.0 mm/hr 0.00 in0.0 mm
06:30 AM 60.0°F15.6°C 54.1°F12.3°C 81% 2.2 mph ESE3.5 kmh ESE 4.0 mph6.4 kmh 29.88 in1011.9 mb 0.00 in0.0 mm 0.00 in/hr0.0 mm/hr 0.00 in0.0 mm
06:40 AM 61.3°F16.3°C 54.7°F12.6°C 79% 3.3 mph ESE5.3 kmh ESE 6.0 mph9.7 kmh 29.88 in1011.9 mb 0.00 in0.0 mm 0.00 in/hr0.0 mm/hr 0.00 in0.0 mm
06:50 AM 62.1°F16.7°C 55.2°F12.9°C 78% 3.1 mph SE5.0 kmh SE 6.0 mph9.7 kmh 29.88 in1011.9 mb 0.00 in0.0 mm 0.00 in/hr0.0 mm/hr 0.00 in0.0 mm
07:00 AM 62.6°F17.0°C 55.3°F12.9°C 77% 2.7 mph ESE4.3 kmh ESE 10.0 mph16.1 kmh 29.88 in1011.9 mb 0.00 in0.0 mm 0.00 in/hr0.0 mm/hr 0.00 in0.0 mm
07:10 AM 63.3°F17.4°C 55.2°F12.9°C 75% 3.2 mph ESE5.1 kmh ESE 5.0 mph8.0 kmh 29.88 in1011.9 mb 0.00 in0.0 mm 0.00 in/hr0.0 mm/hr 0.00 in0.0 mm
07:20 AM 63.6°F17.6°C 55.5°F13.1°C 75% 4.4 mph ENE7.1 kmh ENE 9.0 mph14.5 kmh 29.89 in1012.2 mb 0.00 in0.0 mm 0.00 in/hr0.0 mm/hr 0.00 in0.0 mm
07:30 AM 64.5°F18.1°C 54.9°F12.7°C 71% 4.1 mph NE6.6 kmh NE 11.0 mph17.7 kmh 29.89 in1012.2 mb 0.00 in0.0 mm 0.00 in/hr0.0 mm/hr 0.00 in0.0 mm
07:40 AM 65.1°F18.4°C 55.1°F12.8°C 70% 3.1 mph SE5.0 kmh SE 7.0 mph11.3 kmh 29.89 in1012.2 mb 0.00 in0.0 mm 0.00 in/hr0.0 mm/hr 0.00 in0.0 mm
07:50 AM 65.5°F18.6°C 55.8°F13.2°C 71% 3.9 mph E6.3 kmh E 11.0 mph17.7 kmh 29.89 in1012.2 mb 0.00 in0.0 mm 0.00 in/hr0.0 mm/hr 0.00 in0.0 mm
08:00 AM 66.2°F19.0°C 55.3°F12.9°C 68% 6.9 mph ESE11.1 kmh ESE 13.0 mph20.9 kmh 29.89 in1012.2 mb 0.00 in0.0 mm 0.00 in/hr0.0 mm/hr 0.00 in0.0 mm
08:10 AM 67.2°F19.6°C 55.9°F13.3°C 67% 5.0 mph E8.0 kmh E 11.0 mph17.7 kmh 29.89 in1012.2 mb 0.00 in0.0 mm 0.00 in/hr0.0 mm/hr 0.00 in0.0 mm
08:20 AM 67.5°F19.7°C 54.9°F12.7°C 64% 7.9 mph SE12.7 kmh SE 12.0 mph19.3 kmh 29.88 in1011.9 mb 0.00 in0.0 mm 0.00 in/hr0.0 mm/hr 0.00 in0.0 mm
08:30 AM 67.4°F19.7°C 54.8°F12.7°C 64% 6.3 mph ESE10.1 kmh ESE 11.0 mph17.7 kmh 29.88 in1011.9 mb 0.00 in0.0 mm 0.00 in/hr0.0 mm/hr 0.00 in0.0 mm
08:40 AM 68.1°F20.1°C 55.4°F13.0°C 64% 6.7 mph ENE10.8 kmh ENE 10.0 mph16.1 kmh 29.88 in1011.9 mb 0.00 in0.0 mm 0.00 in/hr0.0 mm/hr 0.00 in0.0 mm
08:50 AM 68.4°F20.2°C 54.9°F12.7°C 62% 7.9 mph ESE12.7 kmh ESE 11.0 mph17.7 kmh 29.87 in1011.5 mb 0.00 in0.0 mm 0.00 in/hr0.0 mm/hr 0.00 in0.0 mm
09:00 AM 68.1°F20.1°C 55.0°F12.8°C 63% 3.7 mph E6.0 kmh E 7.0 mph11.3 kmh 29.87 in1011.5 mb 0.00 in0.0 mm 0.00 in/hr0.0 mm/hr 0.00 in0.0 mm
09:10 AM 67.6°F19.8°C 55.0°F12.8°C 64% 5.0 mph ESE8.0 kmh ESE 11.0 mph17.7 kmh 29.87 in1011.5 mb 0.00 in0.0 mm 0.00 in/hr0.0 mm/hr 0.00 in0.0 mm
09:20 AM 68.4°F20.2°C 55.8°F13.2°C 64% 3.4 mph ESE5.5 kmh ESE 10.0 mph16.1 kmh 29.87 in1011.5 mb 0.00 in0.0 mm 0.00 in/hr0.0 mm/hr 0.00 in0.0 mm
09:30 AM 69.1°F20.6°C 55.1°F12.8°C 61% 2.1 mph E3.4 kmh E 5.0 mph8.0 kmh 29.87 in1011.5 mb 0.00 in0.0 mm 0.00 in/hr0.0 mm/hr 0.00 in0.0 mm
09:40 AM 69.9°F21.1°C 55.4°F13.0°C 60% 2.9 mph ENE4.7 kmh ENE 9.0 mph14.5 kmh 29.86 in1011.2 mb 0.00 in0.0 mm 0.00 in/hr0.0 mm/hr 0.00 in0.0 mm
09:50 AM 70.7°F21.5°C 55.7°F13.2°C 59% 4.5 mph E7.2 kmh E 12.0 mph19.3 kmh 29.87 in1011.5 mb 0.00 in0.0 mm 0.00 in/hr0.0 mm/hr 0.00 in0.0 mm
10:00 AM 71.2°F21.8°C 55.7°F13.2°C 58% 2.5 mph E4.0 kmh E 10.0 mph16.1 kmh 29.87 in1011.5 mb 0.00 in0.0 mm 0.00 in/hr0.0 mm/hr 0.00 in0.0 mm
10:10 AM 71.7°F22.1°C 56.1°F13.4°C 58% 2.6 mph E4.2 kmh E 6.0 mph9.7 kmh 29.86 in1011.2 mb 0.00 in0.0 mm 0.00 in/hr0.0 mm/hr 0.00 in0.0 mm
10:20 AM 72.0°F22.2°C 56.4°F13.6°C 58% 3.0 mph ENE4.8 kmh ENE 10.0 mph16.1 kmh 29.85 in1010.8 mb 0.00 in0.0 mm 0.00 in/hr0.0 mm/hr 0.00 in0.0 mm
10:30 AM 71.8°F22.1°C 56.2°F13.4°C 58% 3.2 mph E5.1 kmh E 5.0 mph8.0 kmh 29.85 in1010.8 mb 0.00 in0.0 mm 0.00 in/hr0.0 mm/hr 0.00 in0.0 mm
10:40 AM 71.8°F22.1°C 56.2°F13.4°C 58% 2.3 mph E3.7 kmh E 6.0 mph9.7 kmh 29.85 in1010.8 mb 0.00 in0.0 mm 0.00 in/hr0.0 mm/hr 0.00 in0.0 mm
10:50 AM 72.2°F22.3°C 56.1°F13.4°C 57% 2.2 mph ENE3.5 kmh ENE 10.0 mph16.1 kmh 29.85 in1010.8 mb 0.00 in0.0 mm 0.00 in/hr0.0 mm/hr 0.00 in0.0 mm
11:00 AM 72.8°F22.7°C 56.7°F13.7°C 57% 4.6 mph E7.4 kmh E 7.0 mph11.3 kmh 29.85 in1010.8 mb 0.00 in0.0 mm 0.00 in/hr0.0 mm/hr 0.00 in0.0 mm
11:10 AM 73.1°F22.8°C 57.0°F13.9°C 57% 1.4 mph E2.3 kmh E 5.0 mph8.0 kmh 29.84 in1010.5 mb 0.00 in0.0 mm 0.00 in/hr0.0 mm/hr 0.00 in0.0 mm
11:20 AM 73.8°F23.2°C 56.6°F13.7°C 55% 2.3 mph ESE3.7 kmh ESE 6.0 mph9.7 kmh 29.84 in1010.5 mb 0.00 in0.0 mm 0.00 in/hr0.0 mm/hr 0.00 in0.0 mm
11:30 AM 73.5°F23.1°C 56.9°F13.8°C 56% 1.3 mph N2.1 kmh N 3.0 mph4.8 kmh 29.84 in1010.5 mb 0.00 in0.0 mm 0.00 in/hr0.0 mm/hr 0.00 in0.0 mm
11:40 AM 73.7°F23.2°C 56.0°F13.3°C 54% 2.4 mph E3.9 kmh E 4.0 mph6.4 kmh 29.84 in1010.5 mb 0.00 in0.0 mm 0.00 in/hr0.0 mm/hr 0.00 in0.0 mm
11:50 AM 74.0°F23.3°C 56.8°F13.8°C 55% 0.7 mph ESE1.1 kmh ESE 2.0 mph3.2 kmh 29.83 in1010.2 mb 0.00 in0.0 mm 0.00 in/hr0.0 mm/hr 0.00 in0.0 mm
12:00 PM 74.6°F23.7°C 57.4°F14.1°C 55% 1.5 mph SE2.4 kmh SE 4.0 mph6.4 kmh 29.83 in1010.2 mb 0.00 in0.0 mm 0.00 in/hr0.0 mm/hr 0.00 in0.0 mm
12:10 PM 75.1°F23.9°C 57.3°F14.1°C 54% 1.3 mph ENE2.1 kmh ENE 5.0 mph8.0 kmh 29.82 in1009.8 mb 0.00 in0.0 mm 0.00 in/hr0.0 mm/hr 0.00 in0.0 mm
12:20 PM 75.5°F24.2°C 56.6°F13.7°C 52% 2.1 mph E3.4 kmh E 6.0 mph9.7 kmh 29.81 in1009.5 mb 0.00 in0.0 mm 0.00 in/hr0.0 mm/hr 0.00 in0.0 mm
12:30 PM 76.3°F24.6°C 56.8°F13.8°C 51% 3.5 mph E5.6 kmh E 9.0 mph14.5 kmh 29.81 in1009.5 mb 0.00 in0.0 mm 0.00 in/hr0.0 mm/hr 0.00 in0.0 mm
12:40 PM 76.3°F24.6°C 56.3°F13.5°C 50% 0.2 mph ENE0.3 kmh ENE 6.0 mph9.7 kmh 29.81 in1009.5 mb 0.00 in0.0 mm 0.00 in/hr0.0 mm/hr 0.00 in0.0 mm
12:50 PM 75.8°F24.3°C 56.4°F13.6°C 51% 1.2 mph ESE1.9 kmh ESE 4.0 mph6.4 kmh 29.80 in1009.1 mb 0.00 in0.0 mm 0.00 in/hr0.0 mm/hr 0.00 in0.0 mm
01:00 PM 75.8°F24.3°C 56.4°F13.6°C 51% 1.9 mph E3.1 kmh E 6.0 mph9.7 kmh 29.80 in1009.1 mb 0.00 in0.0 mm 0.00 in/hr0.0 mm/hr 0.00 in0.0 mm
01:10 PM 76.9°F24.9°C 56.3°F13.5°C 49% 2.1 mph ESE3.4 kmh ESE 5.0 mph8.0 kmh 29.80 in1009.1 mb 0.00 in0.0 mm 0.00 in/hr0.0 mm/hr 0.00 in0.0 mm
01:20 PM 77.4°F25.2°C 57.3°F14.1°C 50% 2.2 mph E3.5 kmh E 5.0 mph8.0 kmh 29.79 in1008.8 mb 0.00 in0.0 mm 0.00 in/hr0.0 mm/hr 0.00 in0.0 mm
01:30 PM 76.0°F24.4°C 57.1°F13.9°C 52% 3.8 mph S6.1 kmh S 10.0 mph16.1 kmh 29.79 in1008.8 mb 0.00 in0.0 mm 0.00 in/hr0.0 mm/hr 0.00 in0.0 mm
01:40 PM 74.5°F23.6°C 57.3°F14.1°C 55% 3.4 mph SSE5.5 kmh SSE 10.0 mph16.1 kmh 29.79 in1008.8 mb 0.00 in0.0 mm 0.00 in/hr0.0 mm/hr 0.00 in0.0 mm
01:50 PM 74.0°F23.3°C 57.3°F14.1°C 56% 4.4 mph SSE7.1 kmh SSE 9.0 mph14.5 kmh 29.79 in1008.8 mb 0.00 in0.0 mm 0.00 in/hr0.0 mm/hr 0.00 in0.0 mm
02:00 PM 74.7°F23.7°C 57.4°F14.1°C 55% 2.4 mph ESE3.9 kmh ESE 4.0 mph6.4 kmh 29.79 in1008.8 mb 0.00 in0.0 mm 0.00 in/hr0.0 mm/hr 0.00 in0.0 mm
02:10 PM 74.3°F23.5°C 57.6°F14.2°C 56% 4.5 mph SE7.2 kmh SE 10.0 mph16.1 kmh 29.78 in1008.5 mb 0.00 in0.0 mm 0.00 in/hr0.0 mm/hr 0.00 in0.0 mm
02:20 PM 75.2°F24.0°C 57.9°F14.4°C 55% 3.2 mph ESE5.1 kmh ESE 9.0 mph14.5 kmh 29.77 in1008.1 mb 0.00 in0.0 mm 0.00 in/hr0.0 mm/hr 0.00 in0.0 mm
02:30 PM 75.1°F23.9°C 56.8°F13.8°C 53% 4.2 mph S6.8 kmh S 9.0 mph14.5 kmh 29.77 in1008.1 mb 0.00 in0.0 mm 0.00 in/hr0.0 mm/hr 0.00 in0.0 mm
02:40 PM 73.7°F23.2°C 57.0°F13.9°C 56% 2.6 mph S4.2 kmh S 8.0 mph12.9 kmh 29.77 in1008.1 mb 0.00 in0.0 mm 0.00 in/hr0.0 mm/hr 0.00 in0.0 mm
02:50 PM 74.8°F23.8°C 58.5°F14.7°C 57% 4.8 mph S7.7 kmh S 10.0 mph16.1 kmh 29.76 in1007.8 mb 0.00 in0.0 mm 0.00 in/hr0.0 mm/hr 0.00 in0.0 mm
03:00 PM 74.6°F23.7°C 57.9°F14.4°C 56% 6.5 mph SSE10.5 kmh SSE 10.0 mph16.1 kmh 29.76 in1007.8 mb 0.00 in0.0 mm 0.00 in/hr0.0 mm/hr 0.00 in0.0 mm
03:10 PM 73.8°F23.2°C 57.6°F14.2°C 57% 0.5 mph SE0.8 kmh SE 14.0 mph22.5 kmh 29.76 in1007.8 mb 0.00 in0.0 mm 0.00 in/hr0.0 mm/hr 0.00 in0.0 mm
03:20 PM 73.2°F22.9°C 57.5°F14.2°C 58% 6.1 mph E9.8 kmh E 12.0 mph19.3 kmh 29.76 in1007.8 mb 0.00 in0.0 mm 0.00 in/hr0.0 mm/hr 0.00 in0.0 mm
03:30 PM 73.5°F23.1°C 57.8°F14.3°C 58% 3.8 mph SSE6.1 kmh SSE 14.0 mph22.5 kmh 29.76 in1007.8 mb 0.00 in0.0 mm 0.00 in/hr0.0 mm/hr 0.00 in0.0 mm
03:40 PM 74.3°F23.5°C 58.0°F14.4°C 57% 3.2 mph SE5.1 kmh SE 10.0 mph16.1 kmh 29.76 in1007.8 mb 0.00 in0.0 mm 0.00 in/hr0.0 mm/hr 0.00 in0.0 mm
03:50 PM 74.3°F23.5°C 58.6°F14.8°C 58% 5.5 mph E8.9 kmh E 10.0 mph16.1 kmh 29.76 in1007.8 mb 0.00 in0.0 mm 0.00 in/hr0.0 mm/hr 0.00 in0.0 mm
04:00 PM 74.2°F23.4°C 58.5°F14.7°C 58% 7.3 mph SE11.7 kmh SE 14.0 mph22.5 kmh 29.76 in1007.8 mb 0.00 in0.0 mm 0.00 in/hr0.0 mm/hr 0.00 in0.0 mm
04:10 PM 74.1°F23.4°C 58.4°F14.7°C 58% 2.5 mph SSE4.0 kmh SSE 6.0 mph9.7 kmh 29.76 in1007.8 mb 0.00 in0.0 mm 0.00 in/hr0.0 mm/hr 0.00 in0.0 mm
04:20 PM 74.1°F23.4°C 57.9°F14.4°C 57% 4.8 mph SE7.7 kmh SE 7.0 mph11.3 kmh 29.76 in1007.8 mb 0.00 in0.0 mm 0.00 in/hr0.0 mm/hr 0.00 in0.0 mm
04:30 PM 73.8°F23.2°C 57.6°F14.2°C 57% 5.7 mph SE9.2 kmh SE 13.0 mph20.9 kmh 29.76 in1007.8 mb 0.00 in0.0 mm 0.00 in/hr0.0 mm/hr 0.00 in0.0 mm
04:40 PM 73.3°F22.9°C 57.1°F13.9°C 57% 8.0 mph SE12.9 kmh SE 14.0 mph22.5 kmh 29.75 in1007.5 mb 0.00 in0.0 mm 0.00 in/hr0.0 mm/hr 0.00 in0.0 mm
04:50 PM 73.0°F22.8°C 57.8°F14.3°C 59% 7.8 mph SE12.6 kmh SE 12.0 mph19.3 kmh 29.75 in1007.5 mb 0.00 in0.0 mm 0.00 in/hr0.0 mm/hr 0.00 in0.0 mm
05:00 PM 72.8°F22.7°C 57.6°F14.2°C 59% 6.3 mph ESE10.1 kmh ESE 11.0 mph17.7 kmh 29.75 in1007.5 mb 0.00 in0.0 mm 0.00 in/hr0.0 mm/hr 0.00 in0.0 mm
05:10 PM 72.7°F22.6°C 58.0°F14.4°C 60% 4.1 mph SE6.6 kmh SE 10.0 mph16.1 kmh 29.75 in1007.5 mb 0.00 in0.0 mm 0.00 in/hr0.0 mm/hr 0.00 in0.0 mm
05:20 PM 72.4°F22.4°C 57.8°F14.3°C 60% 5.6 mph SE9.0 kmh SE 15.0 mph24.1 kmh 29.75 in1007.5 mb 0.00 in0.0 mm 0.00 in/hr0.0 mm/hr 0.00 in0.0 mm
05:30 PM 72.3°F22.4°C 58.1°F14.5°C 61% 5.9 mph ESE9.5 kmh ESE 12.0 mph19.3 kmh 29.75 in1007.5 mb 0.00 in0.0 mm 0.00 in/hr0.0 mm/hr 0.00 in0.0 mm
05:40 PM 71.9°F22.2°C 57.7°F14.3°C 61% 6.7 mph SE10.8 kmh SE 15.0 mph24.1 kmh 29.75 in1007.5 mb 0.00 in0.0 mm 0.00 in/hr0.0 mm/hr 0.00 in0.0 mm
05:50 PM 71.6°F22.0°C 58.3°F14.6°C 63% 6.7 mph SE10.8 kmh SE 12.0 mph19.3 kmh 29.74 in1007.1 mb 0.00 in0.0 mm 0.00 in/hr0.0 mm/hr 0.00 in0.0 mm
06:00 PM 71.1°F21.7°C 58.3°F14.6°C 64% 5.0 mph SE8.0 kmh SE 14.0 mph22.5 kmh 29.74 in1007.1 mb 0.00 in0.0 mm 0.00 in/hr0.0 mm/hr 0.00 in0.0 mm
06:10 PM 70.9°F21.6°C 58.1°F14.5°C 64% 5.9 mph SE9.5 kmh SE 11.0 mph17.7 kmh 29.74 in1007.1 mb 0.00 in0.0 mm 0.00 in/hr0.0 mm/hr 0.00 in0.0 mm
06:20 PM 70.7°F21.5°C 58.4°F14.7°C 65% 5.1 mph SE8.2 kmh SE 11.0 mph17.7 kmh 29.74 in1007.1 mb 0.00 in0.0 mm 0.00 in/hr0.0 mm/hr 0.00 in0.0 mm
06:30 PM 70.5°F21.4°C 58.2°F14.6°C 65% 5.2 mph SE8.4 kmh SE 9.0 mph14.5 kmh 29.74 in1007.1 mb 0.00 in0.0 mm 0.00 in/hr0.0 mm/hr 0.00 in0.0 mm
06:40 PM 70.1°F21.2°C 57.8°F14.3°C 65% 2.9 mph SE4.7 kmh SE 12.0 mph19.3 kmh 29.74 in1007.1 mb 0.00 in0.0 mm 0.00 in/hr0.0 mm/hr 0.00 in0.0 mm
06:50 PM 69.7°F20.9°C 57.4°F14.1°C 65% 2.5 mph SE4.0 kmh SE 12.0 mph19.3 kmh 29.75 in1007.5 mb 0.00 in0.0 mm 0.00 in/hr0.0 mm/hr 0.00 in0.0 mm
07:00 PM 69.4°F20.8°C 57.5°F14.2°C 66% 3.8 mph SSE6.1 kmh SSE 6.0 mph9.7 kmh 29.75 in1007.5 mb 0.00 in0.0 mm 0.00 in/hr0.0 mm/hr 0.00 in0.0 mm
07:10 PM 69.1°F20.6°C 57.7°F14.3°C 67% 3.4 mph SE5.5 kmh SE 11.0 mph17.7 kmh 29.75 in1007.5 mb 0.00 in0.0 mm 0.00 in/hr0.0 mm/hr 0.00 in0.0 mm
07:20 PM 68.7°F20.4°C 57.7°F14.3°C 68% Calm Calm -- 29.75 in1007.5 mb 0.00 in0.0 mm 0.00 in/hr0.0 mm/hr 0.00 in0.0 mm
07:30 PM 68.3°F20.2°C 57.7°F14.3°C 69% 1.8 mph SE2.9 kmh SE 12.0 mph19.3 kmh 29.75 in1007.5 mb 0.00 in0.0 mm 0.00 in/hr0.0 mm/hr 0.00 in0.0 mm
07:40 PM 68.0°F20.0°C 57.8°F14.3°C 70% 2.0 mph ESE3.2 kmh ESE 12.0 mph19.3 kmh 29.74 in1007.1 mb 0.00 in0.0 mm 0.00 in/hr0.0 mm/hr 0.00 in0.0 mm
07:50 PM 67.8°F19.9°C 57.3°F14.1°C 69% 2.8 mph ESE4.5 kmh ESE 9.0 mph14.5 kmh 29.75 in1007.5 mb 0.00 in0.0 mm 0.00 in/hr0.0 mm/hr 0.00 in0.0 mm
08:00 PM 67.6°F19.8°C 57.1°F13.9°C 69% Calm Calm -- 29.75 in1007.5 mb 0.00 in0.0 mm 0.00 in/hr0.0 mm/hr 0.00 in0.0 mm
08:10 PM 67.5°F19.7°C 57.0°F13.9°C 69% Calm Calm -- 29.75 in1007.5 mb 0.00 in0.0 mm 0.00 in/hr0.0 mm/hr 0.00 in0.0 mm
08:20 PM 67.3°F19.6°C 57.1°F13.9°C 70% 1.4 mph SE2.3 kmh SE 4.0 mph6.4 kmh 29.76 in1007.8 mb 0.00 in0.0 mm 0.00 in/hr0.0 mm/hr 0.00 in0.0 mm
08:30 PM 67.0°F19.4°C 56.9°F13.8°C 70% 2.5 mph SSE4.0 kmh SSE -- 29.76 in1007.8 mb 0.00 in0.0 mm 0.00 in/hr0.0 mm/hr 0.00 in0.0 mm
08:40 PM 66.9°F19.4°C 57.1°F13.9°C 71% Calm Calm -- 29.76 in1007.8 mb 0.00 in0.0 mm 0.00 in/hr0.0 mm/hr 0.00 in0.0 mm
08:50 PM 66.7°F19.3°C 57.0°F13.9°C 71% 4.7 mph N7.6 kmh N 11.0 mph17.7 kmh 29.76 in1007.8 mb 0.00 in0.0 mm 0.00 in/hr0.0 mm/hr 0.00 in0.0 mm
09:00 PM 66.5°F19.2°C 57.2°F14.0°C 72% Calm Calm -- 29.76 in1007.8 mb 0.00 in0.0 mm 0.00 in/hr0.0 mm/hr 0.00 in0.0 mm
09:10 PM 66.2°F19.0°C 56.9°F13.8°C 72% Calm Calm -- 29.77 in1008.1 mb 0.00 in0.0 mm 0.00 in/hr0.0 mm/hr 0.00 in0.0 mm
09:20 PM 66.0°F18.9°C 57.1°F13.9°C 73% Calm Calm -- 29.76 in1007.8 mb 0.00 in0.0 mm 0.00 in/hr0.0 mm/hr 0.00 in0.0 mm
09:30 PM 65.7°F18.7°C 57.2°F14.0°C 74% 3.2 mph SE5.1 kmh SE 9.0 mph14.5 kmh 29.76 in1007.8 mb 0.00 in0.0 mm 0.00 in/hr0.0 mm/hr 0.00 in0.0 mm
09:40 PM 65.6°F18.7°C 57.1°F13.9°C 74% Calm Calm -- 29.76 in1007.8 mb 0.00 in0.0 mm 0.00 in/hr0.0 mm/hr 0.00 in0.0 mm
09:50 PM 65.5°F18.6°C 57.3°F14.1°C 75% Calm Calm -- 29.76 in1007.8 mb 0.00 in0.0 mm 0.00 in/hr0.0 mm/hr 0.00 in0.0 mm
10:00 PM 65.3°F18.5°C 57.2°F14.0°C 75% Calm Calm -- 29.76 in1007.8 mb 0.00 in0.0 mm 0.00 in/hr0.0 mm/hr 0.00 in0.0 mm
10:10 PM 65.0°F18.3°C 57.3°F14.1°C 76% Calm Calm -- 29.76 in1007.8 mb 0.00 in0.0 mm 0.00 in/hr0.0 mm/hr 0.00 in0.0 mm
10:20 PM 65.0°F18.3°C 57.2°F14.0°C 76% Calm Calm -- 29.76 in1007.8 mb 0.00 in0.0 mm 0.00 in/hr0.0 mm/hr 0.00 in0.0 mm
10:30 PM 64.9°F18.3°C 57.1°F13.9°C 76% Calm Calm -- 29.76 in1007.8 mb 0.00 in0.0 mm 0.00 in/hr0.0 mm/hr 0.00 in0.0 mm
10:40 PM 64.7°F18.2°C 56.9°F13.8°C 76% Calm Calm -- 29.77 in1008.1 mb 0.00 in0.0 mm 0.00 in/hr0.0 mm/hr 0.00 in0.0 mm
10:50 PM 64.3°F17.9°C 56.6°F13.7°C 76% Calm Calm -- 29.76 in1007.8 mb 0.00 in0.0 mm 0.00 in/hr0.0 mm/hr 0.00 in0.0 mm
11:00 PM 63.9°F17.7°C 56.5°F13.6°C 77% Calm Calm -- 29.76 in1007.8 mb 0.00 in0.0 mm 0.00 in/hr0.0 mm/hr 0.00 in0.0 mm
11:10 PM 63.5°F17.5°C 56.5°F13.6°C 78% Calm Calm -- 29.76 in1007.8 mb 0.00 in0.0 mm 0.00 in/hr0.0 mm/hr 0.00 in0.0 mm
11:20 PM 63.1°F17.3°C 56.1°F13.4°C 78% Calm Calm -- 29.77 in1008.1 mb 0.00 in0.0 mm 0.00 in/hr0.0 mm/hr 0.00 in0.0 mm
11:30 PM 62.7°F17.1°C 56.1°F13.4°C 79% Calm Calm -- 29.77 in1008.1 mb 0.00 in0.0 mm 0.00 in/hr0.0 mm/hr 0.00 in0.0 mm
11:40 PM 62.5°F16.9°C 55.9°F13.3°C 79% Calm Calm -- 29.77 in1008.1 mb 0.00 in0.0 mm 0.00 in/hr0.0 mm/hr 0.00 in0.0 mm
11:50 PM 62.3°F16.8°C 56.0°F13.3°C 80% Calm Calm -- 29.76 in1007.8 mb 0.00 in0.0 mm 0.00 in/hr0.0 mm/hr 0.00 in0.0 mm